• Join FlightAware (Why Join?)
  • Login
  • US Flag 
06:29AM EDT


 

Airport Tracker/Info


-or-


 

Live Flight TrackerFlight Track Log ✈ UAL4853 ✈ 01-May-2013 ✈ KCLE - KMDT

Flight Track Log - Related Links

Times and Time Zones

All times are in EDT time to prevent confusion due to time zone crossing. See the UAL4853 flight status page for this flight to view local times or setup timezone preferences in your user account.

Time Position Orientation Groundspeed Altitude Reporting Facility
EDT Latitude Longitude Course Direction KTS MPH feet Rate Location/Type
08:01PM 41.3856 -81.8811 134° Southeast 137 158 1,800  Level Cleveland Center
08:02PM 41.3569 -81.8417 134° Southeast 183 211 2,500 900 Climbing Cleveland Center
08:02PM 41.3489 -81.8031 106° East 179 206 3,200 1,380 Climbing Cleveland Center
08:03PM 41.3408 -81.7806 115° Southeast 181 208 3,900 1,260 Climbing Cleveland Center
08:03PM 41.3244 -81.7417 119° Southeast 182 209 4,500 1,080 Climbing Cleveland Center
08:04PM 41.3061 -81.7025 122° Southeast 189 217 5,600 1,200 Climbing Cleveland Center
08:05PM 41.2817 -81.6386 117° Southeast 183 211 7,000 1,200 Climbing Cleveland Center
08:06PM 41.2572 -81.5803 119° Southeast 183 211 8,100 1,080 Climbing Cleveland Center
08:07PM 41.2392 -81.5164 111° Southeast 183 211 9,200 1,140 Climbing Cleveland Center
08:08PM 41.2292 -81.4389 100° East 183 211 10,400 1,080 Climbing Cleveland Center
08:09PM 41.2150 -81.3725 106° East 183 211 11,400 1,020 Climbing Cleveland Center
08:10PM 41.2011 -81.3061 106° East 183 211 12,500 1,020 Climbing Cleveland Center
08:11PM 41.1889 -81.2397 104° East 183 211 13,500 960 Climbing Cleveland Center
08:12PM 41.1767 -81.1733 104° East 183 211 14,500 900 Climbing Cleveland Center
08:13PM 41.1644 -81.1072 104° East 183 211 15,300 780 Climbing Cleveland Center
08:14PM 41.1503 -81.0381 105° East 183 211 16,100 780 Climbing Cleveland Center
08:15PM 41.1358 -80.9664 105° East 183 211 16,900 660 Climbing Cleveland Center
08:16PM 41.1236 -80.8944 103° East 183 211 17,500 420 Climbing Cleveland Center
08:17PM 41.1092 -80.8228 105° East 188 216 17,800 480 Climbing Cleveland Center
08:19PM 41.0922 -80.7404 105° East  Level FlightAware Approximate
08:19PM 41.0822 -80.6850 105° East 199 229 19,000  Level Cleveland Center
08:20PM 41.0656 -80.6081 106° East 204 235 19,000  Level Cleveland Center
08:21PM 41.0511 -80.5225 103° East 215 247 19,000  Level Cleveland Center
08:22PM 41.0322 -80.4344 106° East 233 268 19,000  Level Cleveland Center
08:24PM 41.0172 -80.3516 104° East  Level FlightAware Approximate
08:24PM 40.9964 -80.2558 104° East 243 280 19,100  Level Cleveland Center
08:25PM 40.9794 -80.1678 104° East 243 280 19,000 -60 Descending Cleveland Center
08:26PM 40.9603 -80.0800 106° East 243 280 19,000  Level Cleveland Center
08:27PM 40.9433 -79.9922 104° East 243 280 19,000  Level Cleveland Center
08:28PM 40.9261 -79.9017 104° East 243 280 19,000  Level Cleveland Center
08:29PM 40.9067 -79.8167 107° East 243 280 19,000  Level Cleveland Center
08:30PM 40.8894 -79.7289 105° East 243 280 19,000  Level Cleveland Center
08:31PM 40.8700 -79.6386 106° East 243 280 19,000  Level Cleveland Center
08:32PM 40.8525 -79.5511 105° East 243 280 19,000  Level Cleveland Center
08:33PM 40.8350 -79.4633 105° East 243 280 19,000  Level Cleveland Center
08:34PM 40.8156 -79.3761 106° East 243 280 19,000  Level Cleveland Center
08:35PM 40.7978 -79.2914 105° East 243 280 19,000  Level Cleveland Center
08:36PM 40.7800 -79.2039 105° East 243 280 19,000  Level Cleveland Center
08:37PM 40.7603 -79.1192 107° East 243 280 19,000  Level Cleveland Center
08:38PM 40.7425 -79.0319 105° East 243 280 19,000  Level Cleveland Center
08:39PM 40.7247 -78.9447 105° East 243 280 19,000  Level Cleveland Center
08:40PM 40.7044 -78.8575 107° East 243 280 19,000  Level Cleveland Center
08:41PM 40.6864 -78.7706 105° East 243 280 19,000 -360 Level Cleveland Center
08:42PM 40.6642 -78.6808 108° East 243 280 18,300 -660 Descending Cleveland Center
08:43PM 40.6439 -78.5856 106° East 254 292 17,700 -840 Descending Cleveland Center
08:44PM 40.6231 -78.4822 105° East 268 308 16,700 -1,020 Descending Cleveland Center
08:45PM 40.6006 -78.3817 106° East 280 322 15,700 -1,080 Descending Cleveland Center
08:47PM 40.5742 -78.2611 106° East 286 329 14,500 -1,080 Descending New York Center
08:48PM 40.5528 -78.1739 108° East 286 329 13,500 -1,020 Descending New York Center
08:49PM 40.5336 -78.0789 105° East 281 323 12,500 -1,020 Descending New York Center
08:50PM 40.5125 -77.9811 106° East 274 315 11,500 -780 Descending New York Center
08:51PM 40.4892 -77.8858 108° East 274 315 11,000 -420 Descending New York Center
08:52PM 40.4714 -77.7967 105° East 269 310 10,700 -720 Descending New York Center
08:53PM 40.4497 -77.7044 107° East 269 310 9,600 -1,260 Descending New York Center
08:54PM 40.4225 -77.5981 109° East 275 316 8,300 -1,200 Descending New York Center
08:55PM 40.4044 -77.5172 106° East 270 311 7,200 -1,140 Descending New York Center
08:56PM 40.3808 -77.4169 107° East 265 305 6,000 -780 Descending New York Center
08:57PM 40.3644 -77.3389 105° East 259 298 5,700 -720 Descending New York Center
08:58PM 40.3422 -77.2469 108° East 247 284 4,600 -900 Descending New York Center
08:59PM 40.3300 -77.1669 101° East 247 284 4,000 -300 Descending New York Center
09:00PM 40.3139 -77.0783 103° East 236 272 4,000  Level New York Center
09:01PM 40.2900 -77.0161 117° Southeast 216 249 4,000 -480 Level New York Center
09:02PM 40.2644 -76.9514 117° Southeast 188 216 3,100 -720 Descending New York Center
09:03PM 40.2425 -76.8922 116° Southeast 182 209 2,700 2,940 Descending New York Center
09:04PM 40.2203 -76.8358 117° Southeast 182 209 9,000 3,060 Climbing New York Center
09:05PM 40.1961 -76.7794 119° Southeast 182 209 9,000  Level New York Center
09:06PM 40.1739 -76.7231 117° Southeast 182 209 9,000  Level New York Center
09:08PM 40.1833 -76.7500 303° West  Level FlightAware Approximate
09:15PM 40.1932 -76.7626 303° West  Level Estimated